createdAt,value
2019-04-07T00:01:50.473Z,14.10
2019-04-07T00:04:19.213Z,13.53
2019-04-07T00:06:47.907Z,13.48
2019-04-07T00:09:16.599Z,12.75
2019-04-07T00:11:45.290Z,12.75
2019-04-07T00:14:13.970Z,13.55
2019-04-07T00:16:42.699Z,13.58
2019-04-07T00:19:11.336Z,14.13
2019-04-07T00:21:40.012Z,12.37
2019-04-07T00:24:09.231Z,12.98
2019-04-07T00:26:38.097Z,13.55
2019-04-07T00:29:06.786Z,12.68
2019-04-07T00:31:35.457Z,13.15
2019-04-07T00:34:04.160Z,13.10
2019-04-07T00:36:32.932Z,13.45
2019-04-07T00:39:01.638Z,12.75
2019-04-07T00:41:30.845Z,12.37
2019-04-07T00:44:00.032Z,13.05
2019-04-07T00:46:28.900Z,13.30
2019-04-07T00:48:57.820Z,13.30
2019-04-07T00:51:26.794Z,13.15
2019-04-07T00:53:56.058Z,12.30
2019-04-07T00:56:25.045Z,13.03
2019-04-07T00:58:55.962Z,12.55
2019-04-07T01:03:55.670Z,12.60
2019-04-07T01:06:24.436Z,12.10
2019-04-07T01:08:53.658Z,11.35
2019-04-07T01:11:23.077Z,11.63
2019-04-07T01:13:51.999Z,11.70
2019-04-07T01:16:20.791Z,11.83
2019-04-07T01:18:49.476Z,12.65
2019-04-07T01:21:18.168Z,12.07
2019-04-07T01:23:46.903Z,11.08
2019-04-07T01:26:16.323Z,12.18
2019-04-07T01:28:45.601Z,12.37
2019-04-07T01:31:14.381Z,11.97
2019-04-07T01:33:43.185Z,11.25
2019-04-07T01:36:12.637Z,12.18
2019-04-07T01:38:42.162Z,11.18
2019-04-07T01:41:12.540Z,11.20
2019-04-07T01:43:49.336Z,11.80
2019-04-07T01:46:26.176Z,11.75
2019-04-07T01:49:05.628Z,11.48
2019-04-07T01:51:47.902Z,10.43
2019-04-07T01:54:18.180Z,10.70
2019-04-07T01:57:05.714Z,11.22
2019-04-07T01:59:36.522Z,12.45
2019-04-07T02:02:12.581Z,11.57
2019-04-07T02:04:48.960Z,11.57
2019-04-07T02:07:19.550Z,10.53
2019-04-07T02:12:19.919Z,10.70
2019-04-07T02:14:53.325Z,11.55
2019-04-07T02:17:30.188Z,11.10
2019-04-07T02:20:06.704Z,11.60
2019-04-07T02:22:52.094Z,11.33
2019-04-07T02:25:25.187Z,11.85
2019-04-07T02:27:58.447Z,11.28
2019-04-07T02:30:35.242Z,11.38
2019-04-07T02:33:08.650Z,12.00
2019-04-07T02:35:41.846Z,11.28
2019-04-07T02:38:19.230Z,11.48
2019-04-07T02:41:09.016Z,11.55
2019-04-07T02:43:46.558Z,11.40
2019-04-07T02:46:36.512Z,11.90
2019-04-07T02:49:08.104Z,11.78
2019-04-07T02:51:42.069Z,12.20
2019-04-07T02:54:15.503Z,13.40
2019-04-07T02:56:48.925Z,12.07
2019-04-07T02:59:41.089Z,11.25
2019-04-07T03:02:24.959Z,11.95
2019-04-07T03:05:02.143Z,11.88
2019-04-07T03:07:35.689Z,12.45
2019-04-07T03:10:20.313Z,12.63
2019-04-07T03:13:06.165Z,12.13
2019-04-07T03:15:40.869Z,12.93
2019-04-07T03:18:12.576Z,12.80
2019-04-07T03:20:45.971Z,12.90
2019-04-07T03:23:18.969Z,13.10
2019-04-07T03:26:02.218Z,13.10
2019-04-07T03:28:33.346Z,13.32
2019-04-07T03:31:07.140Z,13.40
2019-04-07T03:33:54.947Z,12.55
2019-04-07T03:37:12.664Z,13.43
2019-04-07T03:39:30.814Z,12.88
2019-04-07T03:42:01.192Z,13.40
2019-04-07T03:44:32.210Z,13.48
2019-04-07T03:47:06.944Z,14.00
2019-04-07T03:49:41.262Z,14.05
2019-04-07T03:52:17.883Z,13.72
2019-04-07T03:55:04.927Z,13.62
2019-04-07T03:57:38.979Z,13.62
2019-04-07T04:00:15.274Z,13.05
2019-04-07T04:02:52.700Z,13.18
2019-04-07T04:05:34.832Z,13.45
2019-04-07T04:08:07.722Z,14.20
2019-04-07T04:10:38.523Z,13.90
2019-04-07T04:13:12.307Z,14.25
2019-04-07T04:15:43.461Z,14.70
2019-04-07T04:18:12.566Z,15.10
2019-04-07T04:20:41.239Z,15.13
2019-04-07T04:23:10.438Z,15.13
2019-04-07T04:25:40.728Z,15.65
2019-04-07T04:28:09.734Z,15.88
2019-04-07T04:30:38.401Z,15.03
2019-04-07T04:33:07.991Z,15.48
2019-04-07T04:35:37.556Z,15.75
2019-04-07T04:38:06.630Z,14.70
2019-04-07T04:40:36.038Z,13.55
2019-04-07T04:43:04.894Z,14.50
2019-04-07T04:45:33.838Z,13.38
2019-04-07T04:48:02.797Z,13.32
2019-04-07T04:50:31.832Z,13.83
2019-04-07T04:53:02.528Z,14.23
2019-04-07T04:55:31.882Z,13.88
2019-04-07T04:58:00.701Z,14.45
2019-04-07T05:00:29.385Z,15.05
2019-04-07T05:02:58.174Z,14.00
2019-04-07T05:05:26.858Z,14.50
2019-04-07T05:08:00.824Z,14.50
2019-04-07T05:10:26.540Z,14.58
2019-04-07T05:12:55.284Z,14.28
2019-04-07T05:15:24.195Z,14.78
2019-04-07T05:17:52.960Z,14.75
2019-04-07T05:20:21.750Z,14.33
2019-04-07T05:22:51.211Z,15.08
2019-04-07T05:25:20.578Z,13.55
2019-04-07T05:27:49.505Z,15.90
2019-04-07T05:30:18.364Z,15.75
2019-04-07T05:32:47.887Z,15.48
2019-04-07T05:35:16.569Z,15.60
2019-04-07T05:37:45.895Z,15.25
2019-04-07T05:40:15.381Z,15.63
2019-04-07T05:42:44.479Z,15.78
2019-04-07T05:45:13.201Z,16.65
2019-04-07T05:47:47.805Z,15.38
2019-04-07T05:50:13.319Z,16.40
2019-04-07T05:52:42.187Z,16.87
2019-04-07T05:55:11.022Z,15.90
2019-04-07T05:57:39.935Z,15.78
2019-04-07T06:00:15.680Z,16.62
2019-04-07T06:02:42.929Z,17.98
2019-04-07T06:05:12.049Z,17.75
2019-04-07T06:07:41.473Z,17.17
2019-04-07T06:10:10.292Z,16.75
2019-04-07T06:12:41.555Z,17.35
2019-04-07T06:15:10.789Z,15.53
2019-04-07T06:17:40.019Z,18.57
2019-04-07T06:20:12.153Z,16.60
2019-04-07T06:22:39.182Z,18.92
2019-04-07T06:25:09.603Z,17.52
2019-04-07T06:27:38.444Z,18.32
2019-04-07T06:30:09.769Z,17.80
2019-04-07T06:32:39.654Z,18.15
2019-04-07T06:35:08.531Z,18.37
2019-04-07T06:37:37.413Z,18.67
2019-04-07T06:40:06.219Z,18.85
2019-04-07T06:42:36.513Z,18.20
2019-04-07T06:45:10.950Z,18.30
2019-04-07T06:47:50.789Z,18.80
2019-04-07T06:50:27.103Z,19.45
2019-04-07T06:52:57.688Z,17.60
2019-04-07T06:55:29.663Z,18.12
2019-04-07T06:58:08.263Z,19.20
2019-04-07T07:00:55.941Z,18.30
2019-04-07T07:03:43.068Z,18.40
2019-04-07T07:06:29.723Z,19.42
2019-04-07T07:09:13.789Z,18.90
2019-04-07T07:11:56.136Z,19.42
2019-04-07T07:14:38.484Z,20.15
2019-04-07T07:17:16.996Z,20.60
2019-04-07T07:20:03.593Z,18.45
2019-04-07T07:22:51.149Z,18.70
2019-04-07T07:25:20.425Z,17.95
2019-04-07T07:27:49.442Z,18.27
2019-04-07T07:30:19.601Z,18.55
2019-04-07T07:32:50.887Z,19.95
2019-04-07T07:35:19.010Z,18.15
2019-04-07T07:37:48.357Z,18.92
2019-04-07T07:40:18.313Z,20.00
2019-04-07T07:42:49.809Z,19.42
2019-04-07T07:45:18.590Z,18.95
2019-04-07T07:47:51.222Z,18.12
2019-04-07T07:50:19.096Z,19.20
2019-04-07T07:52:51.296Z,19.52
2019-04-07T07:55:18.369Z,18.90
2019-04-07T07:57:47.077Z,18.90
2019-04-07T08:00:15.758Z,19.62
2019-04-07T08:02:44.462Z,20.15
2019-04-07T08:05:13.612Z,18.12
2019-04-07T08:07:46.820Z,17.90
2019-04-07T08:10:13.200Z,19.45
2019-04-07T08:12:42.283Z,19.25
2019-04-07T08:15:11.610Z,20.12
2019-04-07T08:17:43.087Z,18.87
2019-04-07T08:20:31.739Z,19.23
2019-04-07T08:23:01.444Z,20.00
2019-04-07T08:25:33.596Z,19.42
2019-04-07T08:28:04.496Z,18.90
2019-04-07T08:30:32.889Z,20.12
2019-04-07T08:33:02.449Z,19.82
2019-04-07T08:35:35.688Z,20.08
2019-04-07T08:38:02.283Z,19.40
2019-04-07T08:40:30.995Z,20.32
2019-04-07T08:43:00.475Z,19.60
2019-04-07T08:45:32.537Z,20.37
2019-04-07T08:48:00.760Z,20.10
2019-04-07T08:50:29.884Z,19.57
2019-04-07T08:52:59.018Z,19.90
2019-04-07T08:55:28.343Z,21.07
2019-04-07T08:58:00.146Z,21.07
2019-04-07T09:00:29.314Z,20.15
2019-04-07T09:03:03.886Z,20.40
2019-04-07T09:05:31.150Z,20.50
2019-04-07T09:07:59.464Z,20.52
2019-04-07T09:10:35.662Z,20.05
2019-04-07T09:13:08.013Z,22.27
2019-04-07T09:15:48.555Z,22.27
2019-04-07T09:18:18.119Z,19.87
2019-04-07T09:20:49.456Z,21.30
2019-04-07T09:23:20.122Z,19.25
2019-04-07T09:26:10.098Z,20.43
2019-04-07T09:28:44.258Z,19.65
2019-04-07T09:31:17.558Z,20.77
2019-04-07T09:34:00.150Z,19.70
2019-04-07T09:36:32.324Z,18.77
2019-04-07T09:39:07.876Z,18.98
2019-04-07T09:41:41.372Z,20.48
2019-04-07T09:44:15.940Z,19.48
2019-04-07T09:46:55.261Z,18.65
2019-04-07T09:49:28.257Z,19.10
2019-04-07T09:52:04.283Z,20.10
2019-04-07T09:54:34.542Z,18.70
2019-04-07T09:57:21.246Z,21.55
2019-04-07T09:59:53.508Z,20.00
2019-04-07T10:02:39.416Z,19.15
2019-04-07T10:05:11.247Z,19.98
2019-04-07T10:07:57.953Z,20.15
2019-04-07T10:10:44.862Z,20.55
2019-04-07T10:13:21.562Z,19.67
2019-04-07T10:15:58.217Z,19.85
2019-04-07T10:18:28.590Z,20.68
2019-04-07T10:21:01.751Z,19.90
2019-04-07T10:23:49.678Z,21.42
2019-04-07T10:26:20.160Z,19.60
2019-04-07T10:28:56.246Z,20.12
2019-04-07T10:31:26.492Z,20.48
2019-04-07T10:34:13.321Z,20.68
2019-04-07T10:36:56.777Z,20.32
2019-04-07T10:39:33.724Z,20.25
2019-04-07T10:42:10.384Z,20.82
2019-04-07T10:44:57.232Z,20.35
2019-04-07T10:47:30.641Z,19.65
2019-04-07T10:50:08.496Z,20.08
2019-04-07T10:52:45.891Z,20.27
2019-04-07T10:55:28.886Z,21.60
2019-04-07T10:58:05.440Z,20.72
2019-04-07T11:00:48.549Z,19.90
2019-04-07T11:05:59.391Z,20.15
2019-04-07T11:08:35.605Z,20.85
2019-04-07T11:11:06.269Z,19.92
2019-04-07T11:13:51.785Z,19.60
2019-04-07T11:16:40.654Z,19.70
2019-04-07T11:19:11.106Z,18.75
2019-04-07T11:21:57.906Z,20.62
2019-04-07T11:24:38.072Z,20.57
2019-04-07T11:27:13.051Z,18.75
2019-04-07T11:30:00.865Z,17.98
2019-04-07T11:32:46.188Z,18.80
2019-04-07T11:35:17.083Z,18.87
2019-04-07T11:38:02.791Z,19.67
2019-04-07T11:40:52.397Z,18.70
2019-04-07T11:43:38.059Z,18.42
2019-04-07T11:46:11.944Z,20.45
2019-04-07T11:48:54.786Z,19.12
2019-04-07T11:51:28.172Z,20.37
2019-04-07T11:54:35.010Z,21.55
2019-04-07T11:57:08.673Z,19.77
2019-04-07T11:59:49.013Z,18.85
2019-04-07T12:02:20.821Z,18.77
2019-04-07T12:05:00.621Z,19.32
2019-04-07T12:07:34.395Z,18.65
2019-04-07T12:10:22.491Z,18.87
2019-04-07T12:12:57.018Z,18.60
2019-04-07T12:15:34.722Z,18.85
2019-04-07T12:18:18.973Z,18.42
2019-04-07T12:21:04.175Z,20.65
2019-04-07T12:23:35.700Z,18.15
2019-04-07T12:26:11.702Z,18.73
2019-04-07T12:28:50.026Z,19.42
2019-04-07T12:31:25.977Z,20.15
2019-04-07T12:34:14.042Z,20.08
2019-04-07T12:37:03.910Z,19.57
2019-04-07T12:39:34.135Z,18.73
2019-04-07T12:42:08.340Z,19.00
2019-04-07T12:44:57.085Z,17.67
2019-04-07T12:47:33.128Z,17.82
2019-04-07T12:50:09.282Z,18.12
2019-04-07T12:52:59.414Z,17.40
2019-04-07T12:55:49.625Z,17.75
2019-04-07T12:58:16.282Z,18.23
2019-04-07T13:01:06.248Z,18.07
2019-04-07T13:03:30.443Z,19.27
2019-04-07T13:06:00.723Z,18.27
2019-04-07T13:08:32.171Z,17.30
2019-04-07T13:11:08.909Z,18.62
2019-04-07T13:13:54.186Z,17.48
2019-04-07T13:16:33.818Z,17.00
2019-04-07T13:19:15.078Z,18.90
2019-04-07T13:22:03.326Z,17.77
2019-04-07T13:24:39.220Z,19.02
2019-04-07T13:27:26.471Z,19.25
2019-04-07T13:29:57.026Z,19.30
2019-04-07T13:32:41.796Z,18.00
2019-04-07T13:35:13.949Z,18.90
2019-04-07T13:38:01.235Z,18.62
2019-04-07T13:40:31.839Z,19.12
2019-04-07T13:43:04.227Z,18.50
2019-04-07T13:45:53.725Z,19.00
2019-04-07T13:48:30.146Z,19.35
2019-04-07T13:51:06.295Z,19.48
2019-04-07T13:53:39.243Z,19.65
2019-04-07T13:56:26.452Z,21.27
2019-04-07T13:58:57.010Z,18.20
2019-04-07T14:01:36.184Z,19.05
2019-04-07T14:04:18.239Z,19.87
2019-04-07T14:06:49.046Z,19.80
2019-04-07T14:12:09.942Z,20.10
2019-04-07T14:14:38.263Z,19.85
2019-04-07T14:17:24.790Z,20.60
2019-04-07T14:20:01.141Z,20.52
2019-04-07T14:22:34.302Z,20.68
2019-04-07T14:25:22.291Z,20.45
2019-04-07T14:27:52.625Z,20.90
2019-04-07T14:30:39.694Z,20.27
2019-04-07T14:33:28.271Z,18.55
2019-04-07T14:36:07.377Z,20.75
2019-04-07T14:38:47.644Z,20.85
2019-04-07T14:41:18.310Z,21.37
2019-04-07T14:43:51.957Z,21.25
2019-04-07T14:46:31.141Z,20.80
2019-04-07T14:49:07.707Z,21.80
2019-04-07T14:51:57.012Z,20.50
2019-04-07T14:54:43.939Z,20.40
2019-04-07T14:57:20.729Z,20.97
2019-04-07T14:59:54.433Z,21.25
2019-04-07T15:02:24.744Z,21.50
2019-04-07T15:05:07.446Z,21.82
2019-04-07T15:07:37.900Z,21.20
2019-04-07T15:10:09.534Z,20.92
2019-04-07T15:12:52.427Z,21.12
2019-04-07T15:15:21.486Z,21.95
2019-04-07T15:17:51.189Z,22.07
2019-04-07T15:20:20.365Z,21.97
2019-04-07T15:22:49.484Z,20.82
2019-04-07T15:25:19.432Z,20.08
2019-04-07T15:27:48.496Z,21.77
2019-04-07T15:30:18.064Z,21.23
2019-04-07T15:32:47.095Z,20.85
2019-04-07T15:35:16.555Z,21.62
2019-04-07T15:37:45.468Z,22.85
2019-04-07T15:40:14.231Z,24.27
2019-04-07T15:42:47.951Z,24.23
2019-04-07T15:47:42.500Z,23.75
2019-04-07T15:50:11.809Z,22.48
2019-04-07T15:52:43.734Z,22.25
2019-04-07T15:55:11.594Z,22.42
2019-04-07T15:57:40.791Z,22.62
2019-04-07T16:00:10.017Z,22.30
2019-04-07T16:02:42.111Z,23.77
2019-04-07T16:05:09.463Z,23.77
2019-04-07T16:07:38.255Z,23.25
2019-04-07T16:10:08.001Z,23.50
2019-04-07T16:12:44.884Z,22.93
2019-04-07T16:15:07.632Z,22.55
2019-04-07T16:17:37.266Z,24.25
2019-04-07T16:20:20.633Z,22.70
2019-04-07T16:22:47.630Z,22.58
2019-04-07T16:25:15.500Z,22.93
2019-04-07T16:27:44.630Z,22.40
2019-04-07T16:30:15.961Z,23.95
2019-04-07T16:32:44.884Z,25.15
2019-04-07T16:35:16.310Z,24.67
2019-04-07T16:37:45.772Z,24.50
2019-04-07T16:40:14.814Z,24.63
2019-04-07T16:42:54.539Z,25.27
2019-04-07T16:45:16.713Z,24.80
2019-04-07T16:47:44.423Z,26.55
2019-04-07T16:50:32.674Z,26.87
2019-04-07T16:53:03.579Z,27.55
2019-04-07T16:55:40.290Z,27.55
2019-04-07T16:58:09.745Z,29.27
2019-04-07T17:00:38.487Z,29.48
2019-04-07T17:03:08.365Z,30.02
2019-04-07T17:05:37.545Z,31.25
2019-04-07T17:08:06.321Z,31.90
2019-04-07T17:10:35.447Z,31.25
2019-04-07T17:13:14.604Z,30.02
2019-04-07T17:18:08.422Z,31.27
2019-04-07T17:20:38.190Z,32.75
2019-04-07T17:23:07.258Z,34.38
2019-04-07T17:25:36.089Z,33.23
2019-04-07T17:28:06.186Z,34.67
2019-04-07T17:30:37.917Z,34.53
2019-04-07T17:33:06.435Z,35.55
2019-04-07T17:35:35.877Z,35.47
2019-04-07T17:38:07.045Z,38.10
2019-04-07T17:43:28.744Z,41.50
2019-04-07T17:46:12.697Z,42.08
2019-04-07T17:48:56.733Z,43.33
2019-04-07T17:51:23.967Z,44.20
2019-04-07T17:53:55.093Z,41.60
2019-04-07T17:56:43.101Z,42.58
2019-04-07T17:59:17.731Z,48.68
2019-04-07T18:01:53.610Z,50.67
2019-04-07T18:04:23.029Z,50.70
2019-04-07T18:07:04.350Z,49.23
2019-04-07T18:09:50.179Z,49.18
2019-04-07T18:12:24.837Z,47.30
2019-04-07T18:15:11.662Z,49.05
2019-04-07T18:17:47.671Z,49.58
2019-04-07T18:20:33.632Z,49.70
2019-04-07T18:23:05.267Z,49.88
2019-04-07T18:25:39.194Z,50.43
2019-04-07T18:28:21.503Z,50.12
2019-04-07T18:30:53.839Z,51.37
2019-04-07T18:33:39.489Z,52.40
2019-04-07T18:36:09.790Z,53.92
2019-04-07T18:38:51.909Z,54.03
2019-04-07T18:41:40.412Z,55.23
2019-04-07T18:44:26.824Z,57.35
2019-04-07T18:47:06.767Z,58.70
2019-04-07T18:49:37.595Z,60.43
2019-04-07T18:52:22.601Z,59.65
2019-04-07T18:55:09.770Z,61.15
2019-04-07T18:57:46.248Z,61.58
2019-04-07T19:00:16.930Z,61.70
2019-04-07T19:02:50.570Z,61.50
2019-04-07T19:05:36.921Z,62.88
2019-04-07T19:08:12.976Z,65.20
2019-04-07T19:10:45.114Z,63.15
2019-04-07T19:13:17.587Z,65.35
2019-04-07T19:15:47.778Z,65.55
2019-04-07T19:18:24.497Z,64.87
2019-04-07T19:21:13.863Z,67.00
2019-04-07T19:23:46.148Z,67.80
2019-04-07T19:26:42.136Z,71.65
2019-04-07T19:29:21.702Z,75.42
2019-04-07T19:31:58.209Z,71.97
2019-04-07T19:34:34.514Z,72.70
2019-04-07T19:37:10.470Z,78.10
2019-04-07T19:39:43.789Z,81.75
2019-04-07T19:42:16.474Z,79.55
2019-04-07T19:44:51.689Z,81.75
2019-04-07T19:47:21.456Z,82.05
2019-04-07T19:49:52.971Z,79.27
2019-04-07T19:52:36.214Z,82.40
2019-04-07T19:55:14.234Z,86.78
2019-04-07T19:57:44.909Z,88.17
2019-04-07T20:00:25.782Z,89.15
2019-04-07T20:03:07.678Z,89.52
2019-04-07T20:08:20.684Z,87.80
2019-04-07T20:10:52.319Z,90.45
2019-04-07T20:13:24.293Z,106.07
2019-04-07T20:16:04.544Z,112.47
2019-04-07T20:18:41.727Z,117.28
2019-04-07T20:21:35.102Z,123.10
2019-04-07T20:24:13.147Z,117.30
2019-04-07T20:26:43.574Z,124.20
2019-04-07T20:29:14.903Z,125.75
2019-04-07T20:31:57.440Z,124.80
2019-04-07T20:34:36.504Z,110.90
2019-04-07T20:37:09.350Z,108.30
2019-04-07T20:39:52.051Z,105.22
2019-04-07T20:42:22.325Z,100.07
2019-04-07T20:45:04.342Z,103.32
2019-04-07T20:47:33.371Z,96.45
2019-04-07T20:50:04.278Z,99.03
2019-04-07T20:55:13.514Z,88.30
2019-04-07T20:57:43.973Z,92.12
2019-04-07T21:00:29.252Z,91.30
2019-04-07T21:03:15.266Z,83.07
2019-04-07T21:05:49.117Z,82.62
2019-04-07T21:08:31.136Z,88.22
2019-04-07T21:11:09.082Z,75.67
2019-04-07T21:13:39.497Z,60.40
2019-04-07T21:16:16.620Z,54.03
2019-04-07T21:18:47.133Z,45.60
2019-04-07T21:21:23.478Z,32.38
2019-04-07T21:23:54.037Z,28.38
2019-04-07T21:26:28.480Z,27.25
2019-04-07T21:29:10.495Z,25.50
2019-04-07T21:34:43.594Z,22.67
2019-04-07T21:37:17.358Z,22.65
2019-04-07T21:39:50.449Z,23.92
2019-04-07T21:42:26.392Z,22.35
2019-04-07T21:45:12.810Z,22.58
2019-04-07T21:47:44.020Z,23.32
2019-04-07T21:50:15.142Z,22.95
2019-04-07T21:52:54.495Z,24.30
2019-04-07T21:55:35.573Z,23.92
2019-04-07T21:58:08.757Z,22.45
2019-04-07T22:00:55.344Z,22.45
2019-04-07T22:03:29.021Z,22.85
2019-04-07T22:06:00.548Z,23.77
2019-04-07T22:08:36.897Z,23.87
2019-04-07T22:11:05.778Z,24.77
2019-04-07T22:13:35.499Z,24.52
2019-04-07T22:16:05.805Z,24.18
2019-04-07T22:18:37.416Z,24.50
2019-04-07T22:21:04.941Z,23.65
2019-04-07T22:23:33.785Z,25.27
2019-04-07T22:26:02.598Z,26.50
2019-04-07T22:28:31.762Z,26.10
2019-04-07T22:31:01.498Z,26.60
2019-04-07T22:33:32.423Z,27.58
2019-04-07T22:36:01.751Z,26.85
2019-04-07T22:38:31.470Z,27.80
2019-04-07T22:41:00.615Z,29.00
2019-04-07T22:43:29.317Z,29.05
2019-04-07T22:46:07.245Z,28.95
2019-04-07T22:48:29.424Z,29.52
2019-04-07T22:50:58.863Z,30.17
2019-04-07T22:53:30.945Z,28.80
2019-04-07T22:55:59.029Z,29.82
2019-04-07T22:58:28.058Z,29.10
2019-04-07T23:00:56.736Z,28.27
2019-04-07T23:03:26.067Z,29.05
2019-04-07T23:05:55.502Z,28.07
2019-04-07T23:08:24.418Z,29.02
2019-04-07T23:10:53.094Z,27.17
2019-04-07T23:13:21.807Z,28.47
2019-04-07T23:15:50.488Z,27.45
2019-04-07T23:18:20.736Z,27.93
2019-04-07T23:20:49.558Z,27.52
2019-04-07T23:23:18.252Z,27.87
2019-04-07T23:25:46.925Z,28.73
2019-04-07T23:28:16.640Z,27.52
2019-04-07T23:30:45.509Z,27.58
2019-04-07T23:33:14.655Z,27.67
2019-04-07T23:35:43.589Z,28.12
2019-04-07T23:38:12.285Z,27.73
2019-04-07T23:40:41.841Z,28.57
2019-04-07T23:43:11.142Z,36.20
2019-04-07T23:45:40.146Z,29.67
2019-04-07T23:48:08.846Z,28.10
2019-04-07T23:50:37.541Z,28.02
2019-04-07T23:53:42.923Z,26.90
2019-04-07T23:56:12.167Z,26.60
2019-04-07T23:58:41.263Z,25.62
